createdAt,value
2023-05-12T00:01:14.348Z,94.54
2023-05-12T00:03:42.442Z,95.25
2023-05-12T00:06:12.494Z,94.79
2023-05-12T00:08:40.514Z,94.84
2023-05-12T00:11:08.595Z,95.12
2023-05-12T00:13:36.696Z,93.99
2023-05-12T00:16:05.335Z,95.43
2023-05-12T00:18:36.146Z,94.99
2023-05-12T00:21:04.132Z,94.69
2023-05-12T00:23:33.515Z,95.20
2023-05-12T00:26:01.495Z,95.52
2023-05-12T00:28:29.514Z,95.01
2023-05-12T00:30:57.954Z,95.11
2023-05-12T00:33:25.898Z,95.41
2023-05-12T00:35:53.852Z,95.43
2023-05-12T00:38:21.796Z,95.07
2023-05-12T00:40:51.135Z,96.30
2023-05-12T00:43:19.140Z,94.85
2023-05-12T00:45:47.526Z,95.21
2023-05-12T00:48:15.657Z,94.16
2023-05-12T00:50:43.987Z,95.41
2023-05-12T00:53:12.585Z,95.13
2023-05-12T00:55:40.581Z,95.12
2023-05-12T00:58:09.922Z,95.19
2023-05-12T01:00:37.918Z,95.67
2023-05-12T01:03:06.273Z,95.70
2023-05-12T01:05:54.053Z,95.16
2023-05-12T01:08:23.220Z,95.29
2023-05-12T01:10:51.312Z,95.24
2023-05-12T01:13:20.838Z,93.82
2023-05-12T01:15:50.007Z,94.05
2023-05-12T01:18:22.714Z,93.57
2023-05-12T01:20:53.689Z,94.75
2023-05-12T01:23:33.362Z,95.20
2023-05-12T01:26:06.266Z,94.68
2023-05-12T01:28:34.728Z,95.27
2023-05-12T01:31:04.775Z,94.51
2023-05-12T01:33:34.456Z,93.21
2023-05-12T01:36:02.529Z,93.66
2023-05-12T01:38:30.493Z,93.42
2023-05-12T01:40:58.783Z,92.61
2023-05-12T01:43:28.157Z,92.74
2023-05-12T01:45:56.108Z,92.98
2023-05-12T01:48:26.912Z,93.62
2023-05-12T01:50:54.857Z,93.45
2023-05-12T01:53:22.977Z,93.50
2023-05-12T01:55:50.987Z,93.11
2023-05-12T01:58:20.276Z,93.67
2023-05-12T02:00:49.606Z,94.78
2023-05-12T02:03:22.341Z,94.51
2023-05-12T02:05:50.332Z,94.55
2023-05-12T02:08:18.293Z,94.53
2023-05-12T02:10:46.848Z,94.38
2023-05-12T02:13:15.421Z,95.34
2023-05-12T02:15:46.502Z,94.01
2023-05-12T02:18:15.815Z,94.01
2023-05-12T02:20:43.693Z,92.63
2023-05-12T02:23:13.620Z,93.71
2023-05-12T02:25:44.387Z,92.73
2023-05-12T02:28:12.321Z,93.67
2023-05-12T02:30:48.658Z,93.39
2023-05-12T02:33:19.071Z,93.72
2023-05-12T02:35:47.557Z,94.63
2023-05-12T02:38:15.753Z,94.68
2023-05-12T02:40:44.171Z,94.53
2023-05-12T02:43:12.103Z,93.43
2023-05-12T02:45:41.380Z,93.84
2023-05-12T02:48:09.471Z,93.84
2023-05-12T02:50:38.929Z,93.43
2023-05-12T02:53:06.886Z,94.29
2023-05-12T02:55:34.775Z,93.64
2023-05-12T02:58:02.952Z,93.83
2023-05-12T03:00:30.853Z,93.80
2023-05-12T03:02:58.807Z,93.58
2023-05-12T03:05:26.852Z,93.59
2023-05-12T03:07:56.240Z,93.88
2023-05-12T03:10:24.218Z,94.50
2023-05-12T03:12:52.168Z,93.72
2023-05-12T03:15:20.082Z,94.02
2023-05-12T03:17:47.979Z,94.41
2023-05-12T03:20:17.619Z,93.99
2023-05-12T03:22:53.353Z,95.56
2023-05-12T03:25:22.694Z,92.88
2023-05-12T03:27:50.641Z,93.66
2023-05-12T03:30:19.034Z,92.98
2023-05-12T03:32:47.611Z,92.22
2023-05-12T03:35:15.625Z,93.79
2023-05-12T03:37:46.572Z,94.43
2023-05-12T03:40:18.654Z,94.52
2023-05-12T03:42:48.335Z,94.79
2023-05-12T03:45:16.502Z,94.49
2023-05-12T03:47:44.756Z,95.21
2023-05-12T03:50:12.949Z,95.21
2023-05-12T03:52:41.697Z,95.32
2023-05-12T03:55:10.696Z,95.12
2023-05-12T03:57:38.763Z,95.04
2023-05-12T04:00:09.373Z,95.50
2023-05-12T04:02:39.255Z,95.15
2023-05-12T04:05:08.638Z,95.67
2023-05-12T04:07:36.800Z,95.44
2023-05-12T04:10:05.135Z,95.35
2023-05-12T04:12:32.972Z,94.98
2023-05-12T04:15:01.341Z,95.05
2023-05-12T04:17:30.676Z,94.60
2023-05-12T04:19:58.618Z,95.33
2023-05-12T04:22:26.689Z,95.08
2023-05-12T04:24:54.579Z,94.74
2023-05-12T04:27:25.454Z,95.64
2023-05-12T04:29:53.356Z,94.78
2023-05-12T04:32:24.447Z,94.92
2023-05-12T04:34:56.179Z,94.61
2023-05-12T04:37:24.069Z,95.32
2023-05-12T04:39:52.124Z,95.18
2023-05-12T04:42:20.029Z,94.42
2023-05-12T04:44:47.932Z,94.48
2023-05-12T04:47:15.863Z,94.57
2023-05-12T04:49:43.738Z,94.85
2023-05-12T04:52:13.119Z,94.61
2023-05-12T04:54:41.007Z,93.94
2023-05-12T04:57:09.335Z,94.03
2023-05-12T04:59:38.788Z,94.19
2023-05-12T05:02:07.907Z,94.16
2023-05-12T05:04:35.824Z,94.62
2023-05-12T05:07:03.719Z,94.30
2023-05-12T05:09:34.935Z,93.75
2023-05-12T05:12:04.037Z,94.27
2023-05-12T05:14:32.132Z,94.36
2023-05-12T05:17:01.016Z,94.25
2023-05-12T05:19:39.118Z,94.43
2023-05-12T05:22:15.996Z,93.57
2023-05-12T05:24:45.375Z,93.56
2023-05-12T05:27:13.875Z,94.29
2023-05-12T05:29:41.834Z,93.62
2023-05-12T05:32:09.776Z,93.83
2023-05-12T05:34:37.842Z,94.29
2023-05-12T05:37:06.085Z,93.72
2023-05-12T05:39:33.964Z,94.15
2023-05-12T05:42:03.156Z,94.11
2023-05-12T05:44:31.518Z,93.57
2023-05-12T05:46:59.522Z,93.16
2023-05-12T05:49:27.413Z,93.86
2023-05-12T05:51:55.349Z,93.71
2023-05-12T05:54:24.580Z,93.77
2023-05-12T05:56:52.495Z,93.63
2023-05-12T05:59:21.688Z,94.48
2023-05-12T06:01:49.559Z,93.76
2023-05-12T06:04:17.865Z,93.31
2023-05-12T06:06:45.802Z,93.57
2023-05-12T06:09:15.465Z,93.16
2023-05-12T06:11:43.319Z,93.20
2023-05-12T06:14:11.493Z,94.05
2023-05-12T06:16:41.077Z,94.13
2023-05-12T06:19:09.338Z,93.22
2023-05-12T06:21:37.193Z,93.76
2023-05-12T06:24:05.338Z,94.02
2023-05-12T06:26:33.184Z,93.50
2023-05-12T06:29:01.036Z,93.27
2023-05-12T06:31:28.900Z,93.20
2023-05-12T06:33:58.367Z,92.76
2023-05-12T06:36:26.292Z,92.82
2023-05-12T06:38:54.164Z,92.83
2023-05-12T06:41:22.035Z,92.33
2023-05-12T06:43:53.567Z,92.45
2023-05-12T06:46:21.729Z,92.80
2023-05-12T06:48:49.602Z,92.12
2023-05-12T06:51:21.306Z,91.81
2023-05-12T06:53:49.195Z,91.77
2023-05-12T06:56:17.630Z,91.24
2023-05-12T06:58:45.513Z,91.44
2023-05-12T07:01:15.703Z,91.24
2023-05-12T07:03:43.891Z,90.57
2023-05-12T07:06:14.933Z,90.45
2023-05-12T07:08:44.193Z,91.39
2023-05-12T07:11:12.117Z,90.05
2023-05-12T07:13:40.069Z,90.69
2023-05-12T07:16:08.343Z,90.81
2023-05-12T07:18:36.247Z,90.22
2023-05-12T07:21:04.154Z,89.91
2023-05-12T07:23:34.156Z,89.13
2023-05-12T07:26:04.259Z,89.86
2023-05-12T07:28:36.057Z,88.91
2023-05-12T07:31:04.354Z,88.36
2023-05-12T07:33:32.928Z,89.30
2023-05-12T07:36:01.492Z,88.34
2023-05-12T07:38:30.221Z,87.80
2023-05-12T07:40:58.157Z,88.18
2023-05-12T07:43:27.553Z,86.54
2023-05-12T07:45:56.295Z,86.52
2023-05-12T07:48:24.216Z,85.30
2023-05-12T07:50:52.171Z,84.87
2023-05-12T07:53:20.130Z,83.22
2023-05-12T07:55:48.038Z,83.39
2023-05-12T07:58:16.146Z,84.58
2023-05-12T08:00:45.645Z,83.88
2023-05-12T08:03:14.243Z,85.20
2023-05-12T08:05:42.260Z,85.67
2023-05-12T08:08:15.958Z,85.45
2023-05-12T08:10:44.347Z,85.29
2023-05-12T08:13:12.418Z,85.96
2023-05-12T08:15:40.326Z,84.60
2023-05-12T08:18:09.702Z,84.58
2023-05-12T08:20:37.750Z,84.45
2023-05-12T08:23:05.792Z,83.82
2023-05-12T08:25:34.960Z,83.57
2023-05-12T08:28:02.956Z,82.82
2023-05-12T08:30:30.892Z,83.14
2023-05-12T08:32:59.085Z,83.88
2023-05-12T08:35:28.501Z,82.99
2023-05-12T08:37:57.390Z,83.41
2023-05-12T08:40:29.068Z,83.22
2023-05-12T08:43:08.618Z,81.69
2023-05-12T08:45:39.223Z,80.33
2023-05-12T08:48:12.044Z,80.96
2023-05-12T08:50:43.990Z,81.35
2023-05-12T08:53:14.776Z,78.72
2023-05-12T08:55:54.213Z,80.45
2023-05-12T08:58:41.013Z,80.79
2023-05-12T09:01:14.697Z,81.56
2023-05-12T09:03:43.371Z,82.67
2023-05-12T09:06:13.232Z,81.71
2023-05-12T09:08:42.213Z,81.62
2023-05-12T09:11:13.558Z,80.65
2023-05-12T09:13:51.506Z,81.54
2023-05-12T09:16:24.203Z,80.97
2023-05-12T09:18:54.033Z,79.62
2023-05-12T09:21:24.456Z,80.65
2023-05-12T09:23:56.848Z,80.13
2023-05-12T09:26:25.881Z,80.99
2023-05-12T09:28:55.906Z,79.40
2023-05-12T09:31:26.084Z,77.97
2023-05-12T09:33:54.087Z,77.55
2023-05-12T09:36:25.034Z,76.39
2023-05-12T09:39:04.674Z,75.01
2023-05-12T09:41:35.874Z,75.94
2023-05-12T09:44:04.364Z,76.81
2023-05-12T09:46:32.303Z,75.83
2023-05-12T09:49:01.030Z,76.87
2023-05-12T09:51:32.180Z,78.88
2023-05-12T09:54:00.352Z,78.49
2023-05-12T09:56:31.423Z,79.41
2023-05-12T09:59:00.055Z,79.93
2023-05-12T10:01:28.633Z,80.46
2023-05-12T10:03:58.921Z,79.78
2023-05-12T10:06:29.297Z,80.04
2023-05-12T10:09:07.501Z,79.23
2023-05-12T10:11:36.311Z,79.13
2023-05-12T10:14:04.899Z,79.04
2023-05-12T10:16:44.509Z,78.32
2023-05-12T10:19:15.046Z,79.04
2023-05-12T10:21:46.111Z,79.23
2023-05-12T10:24:16.287Z,79.48
2023-05-12T10:26:45.661Z,77.88
2023-05-12T10:29:17.058Z,78.40
2023-05-12T10:31:46.392Z,77.28
2023-05-12T10:34:19.182Z,79.01
2023-05-12T10:36:49.274Z,78.99
2023-05-12T10:39:19.963Z,77.47
2023-05-12T10:41:47.916Z,79.22
2023-05-12T10:44:15.793Z,78.62
2023-05-12T10:46:43.685Z,78.09
2023-05-12T10:49:15.523Z,79.42
2023-05-12T10:51:50.661Z,78.87
2023-05-12T10:54:26.772Z,77.79
2023-05-12T10:57:00.051Z,77.99
2023-05-12T10:59:28.759Z,78.85
2023-05-12T11:02:03.815Z,78.73
2023-05-12T11:04:47.000Z,79.53
2023-05-12T11:07:18.927Z,79.68
2023-05-12T11:09:58.634Z,80.93
2023-05-12T11:12:29.166Z,80.23
2023-05-12T11:14:57.053Z,79.60
2023-05-12T11:17:25.498Z,79.66
2023-05-12T11:19:53.598Z,79.74
2023-05-12T11:22:23.337Z,81.54
2023-05-12T11:24:53.520Z,82.58
2023-05-12T11:27:23.814Z,82.11
2023-05-12T11:29:59.953Z,80.70
2023-05-12T11:32:29.484Z,81.92
2023-05-12T11:34:58.517Z,81.31
2023-05-12T11:37:26.514Z,81.45
2023-05-12T11:39:55.710Z,82.71
2023-05-12T11:42:25.757Z,82.46
2023-05-12T11:44:55.459Z,83.47
2023-05-12T11:47:23.510Z,83.17
2023-05-12T11:49:52.915Z,84.74
2023-05-12T11:52:22.615Z,85.63
2023-05-12T11:54:52.106Z,84.66
2023-05-12T11:57:28.536Z,85.37
2023-05-12T12:00:01.290Z,85.85
2023-05-12T12:02:29.755Z,83.75
2023-05-12T12:04:58.380Z,85.68
2023-05-12T12:07:30.192Z,85.33
2023-05-12T12:09:58.126Z,83.75
2023-05-12T12:12:27.284Z,85.01
2023-05-12T12:14:59.937Z,83.50
2023-05-12T12:17:30.752Z,84.67
2023-05-12T12:19:58.924Z,84.75
2023-05-12T12:22:26.918Z,84.93
2023-05-12T12:24:54.754Z,84.34
2023-05-12T12:27:22.582Z,84.28
2023-05-12T12:29:51.915Z,84.51
2023-05-12T12:32:19.768Z,84.36
2023-05-12T12:34:49.111Z,83.05
2023-05-12T12:37:19.821Z,81.43
2023-05-12T12:39:48.130Z,80.89
2023-05-12T12:42:16.572Z,81.57
2023-05-12T12:44:46.080Z,80.19
2023-05-12T12:47:15.403Z,78.84
2023-05-12T12:49:43.425Z,78.13
2023-05-12T12:52:11.422Z,78.12
2023-05-12T12:54:39.257Z,77.37
2023-05-12T12:57:07.220Z,76.60
2023-05-12T12:59:34.993Z,76.67
2023-05-12T13:02:05.267Z,77.87
2023-05-12T13:04:34.516Z,78.61
2023-05-12T13:07:02.391Z,76.82
2023-05-12T13:09:30.232Z,76.31
2023-05-12T13:11:58.305Z,76.63
2023-05-12T13:14:26.283Z,76.19
2023-05-12T13:16:54.172Z,76.58
2023-05-12T13:19:22.740Z,77.40
2023-05-12T13:21:51.968Z,76.52
2023-05-12T13:24:19.794Z,77.93
2023-05-12T13:26:47.664Z,79.58
2023-05-12T13:29:15.522Z,81.52
2023-05-12T13:31:43.808Z,81.76
2023-05-12T13:34:11.627Z,80.74
2023-05-12T13:36:40.016Z,80.06
2023-05-12T13:39:10.154Z,78.70
2023-05-12T13:41:40.526Z,79.70
2023-05-12T13:44:08.468Z,79.22
2023-05-12T13:46:36.546Z,79.35
2023-05-12T13:49:04.955Z,78.02
2023-05-12T13:51:32.977Z,77.75
2023-05-12T13:54:02.582Z,77.52
2023-05-12T13:56:34.581Z,76.98
2023-05-12T13:59:02.377Z,77.65
2023-05-12T14:01:31.974Z,77.58
2023-05-12T14:03:59.825Z,78.60
2023-05-12T14:06:27.682Z,77.95
2023-05-12T14:08:55.514Z,78.39
2023-05-12T14:11:23.741Z,77.78
2023-05-12T14:13:56.121Z,78.02
2023-05-12T14:16:23.982Z,77.69
2023-05-12T14:18:51.890Z,77.78
2023-05-12T14:21:20.397Z,77.84
2023-05-12T14:23:51.026Z,78.73
2023-05-12T14:26:19.764Z,78.91
2023-05-12T14:28:47.691Z,79.75
2023-05-12T14:31:17.298Z,79.42
2023-05-12T14:33:45.232Z,80.08
2023-05-12T14:36:13.083Z,79.75
2023-05-12T14:38:41.058Z,79.53
2023-05-12T14:41:09.633Z,79.82
2023-05-12T14:43:38.336Z,79.29
2023-05-12T14:46:07.214Z,79.68
2023-05-12T14:48:36.460Z,78.93
2023-05-12T14:51:04.400Z,79.08
2023-05-12T14:53:32.282Z,80.31
2023-05-12T14:56:00.196Z,79.78
2023-05-12T14:58:28.103Z,79.69
2023-05-12T15:00:55.956Z,78.58
2023-05-12T15:03:24.773Z,78.54
2023-05-12T15:06:05.822Z,79.55
2023-05-12T15:08:34.580Z,79.92
2023-05-12T15:11:02.507Z,79.80
2023-05-12T15:13:30.592Z,80.13
2023-05-12T15:15:58.532Z,81.34
2023-05-12T15:18:26.423Z,81.88
2023-05-12T15:20:55.722Z,81.57
2023-05-12T15:23:23.670Z,82.19
2023-05-12T15:25:51.559Z,82.89
2023-05-12T15:28:19.446Z,81.40
2023-05-12T15:30:55.777Z,81.81
2023-05-12T15:33:23.946Z,82.26
2023-05-12T15:35:52.044Z,81.63
2023-05-12T15:38:21.847Z,81.25
2023-05-12T15:40:49.897Z,80.50
2023-05-12T15:43:18.171Z,79.93
2023-05-12T15:45:46.139Z,79.39
2023-05-12T15:48:14.029Z,79.38
2023-05-12T15:50:41.947Z,78.71
2023-05-12T15:53:09.994Z,78.36
2023-05-12T15:55:39.196Z,78.06
2023-05-12T15:58:08.282Z,78.07
2023-05-12T16:00:36.244Z,78.15
2023-05-12T16:03:04.166Z,78.58
2023-05-12T16:05:34.036Z,77.67
2023-05-12T16:08:01.870Z,76.62
2023-05-12T16:10:29.718Z,78.18
2023-05-12T16:12:58.936Z,78.28
2023-05-12T16:15:27.301Z,77.62
2023-05-12T16:17:55.228Z,76.98
2023-05-12T16:20:23.136Z,77.40
2023-05-12T16:22:51.261Z,77.97
2023-05-12T16:25:21.854Z,78.34
2023-05-12T16:27:49.891Z,77.79
2023-05-12T16:30:20.297Z,78.66
2023-05-12T16:32:48.470Z,78.30
2023-05-12T16:35:16.453Z,79.82
2023-05-12T16:37:44.376Z,78.97
2023-05-12T16:40:12.658Z,78.43
2023-05-12T16:42:40.702Z,78.36
2023-05-12T16:45:10.856Z,78.60
2023-05-12T16:47:40.208Z,79.24
2023-05-12T16:50:09.630Z,78.80
2023-05-12T16:52:46.737Z,78.29
2023-05-12T16:55:14.574Z,78.63
2023-05-12T16:57:43.522Z,78.56
2023-05-12T17:00:12.690Z,79.44
2023-05-12T17:02:42.025Z,79.68
2023-05-12T17:05:10.118Z,80.16
2023-05-12T17:07:37.997Z,81.05
2023-05-12T17:10:06.717Z,81.64
2023-05-12T17:12:34.620Z,83.51
2023-05-12T17:15:07.399Z,84.42
2023-05-12T17:17:35.753Z,85.19
2023-05-12T17:20:06.065Z,85.23
2023-05-12T17:22:36.985Z,86.31
2023-05-12T17:25:05.327Z,86.63
2023-05-12T17:27:33.240Z,87.84
2023-05-12T17:30:01.208Z,88.39
2023-05-12T17:32:29.073Z,87.69
2023-05-12T17:34:57.542Z,88.40
2023-05-12T17:37:27.015Z,88.73
2023-05-12T17:39:55.090Z,89.25
2023-05-12T17:42:23.316Z,88.35
2023-05-12T17:44:51.511Z,88.94
2023-05-12T17:47:19.360Z,89.05
2023-05-12T17:49:51.806Z,89.93
2023-05-12T17:52:19.976Z,89.95
2023-05-12T17:54:49.823Z,89.82
2023-05-12T17:57:17.967Z,89.80
2023-05-12T17:59:45.812Z,89.62
2023-05-12T18:02:14.276Z,88.71
2023-05-12T18:04:42.122Z,89.09
2023-05-12T18:07:09.967Z,89.05
2023-05-12T18:09:37.783Z,89.48
2023-05-12T18:12:08.294Z,90.07
2023-05-12T18:14:36.188Z,90.23
2023-05-12T18:17:04.132Z,90.00
2023-05-12T18:19:32.144Z,89.80
2023-05-12T18:22:00.063Z,90.05
2023-05-12T18:24:27.878Z,89.42
2023-05-12T18:26:57.682Z,90.36
2023-05-12T18:29:26.992Z,91.35
2023-05-12T18:31:55.063Z,89.61
2023-05-12T18:34:23.041Z,90.47
2023-05-12T18:36:50.857Z,90.76
2023-05-12T18:39:18.789Z,89.96
2023-05-12T18:41:47.146Z,90.65
2023-05-12T18:44:15.060Z,90.93
2023-05-12T18:46:45.041Z,89.21
2023-05-12T18:49:13.033Z,88.91
2023-05-12T18:51:40.885Z,88.01
2023-05-12T18:54:08.725Z,89.99
2023-05-12T18:56:36.934Z,89.10
2023-05-12T18:59:04.786Z,89.30
2023-05-12T19:01:34.135Z,88.25
2023-05-12T19:04:03.677Z,87.83
2023-05-12T19:06:32.686Z,87.41
2023-05-12T19:09:00.592Z,89.95
2023-05-12T19:11:28.564Z,88.29
2023-05-12T19:13:56.492Z,89.25
2023-05-12T19:16:24.680Z,89.09
2023-05-12T19:18:52.753Z,89.20
2023-05-12T19:21:22.018Z,89.57
2023-05-12T19:23:49.972Z,89.48
2023-05-12T19:26:17.908Z,90.03
2023-05-12T19:28:45.781Z,89.05
2023-05-12T19:31:13.850Z,89.28
2023-05-12T19:33:41.878Z,89.68
2023-05-12T19:36:11.858Z,90.41
2023-05-12T19:38:44.182Z,90.10
2023-05-12T19:41:12.216Z,88.29
2023-05-12T19:43:40.072Z,89.13
2023-05-12T19:46:08.109Z,88.88
2023-05-12T19:48:36.102Z,89.13
2023-05-12T19:51:04.082Z,89.99
2023-05-12T19:53:31.969Z,88.69
2023-05-12T19:56:01.284Z,89.63
2023-05-12T19:58:29.126Z,88.95
2023-05-12T20:00:57.497Z,89.13
2023-05-12T20:03:25.460Z,89.49
2023-05-12T20:05:53.573Z,88.71
2023-05-12T20:08:21.439Z,89.51
2023-05-12T20:10:49.311Z,89.73
2023-05-12T20:13:18.557Z,89.65
2023-05-12T20:15:46.777Z,90.62
2023-05-12T20:18:15.712Z,89.75
2023-05-12T20:20:43.721Z,88.73
2023-05-12T20:23:13.711Z,88.60
2023-05-12T20:25:41.576Z,89.23
2023-05-12T20:28:09.551Z,88.78
2023-05-12T20:30:39.058Z,88.87
2023-05-12T20:33:06.975Z,88.19
2023-05-12T20:35:34.804Z,88.83
2023-05-12T20:38:03.236Z,88.21
2023-05-12T20:40:31.115Z,87.53
2023-05-12T20:42:58.982Z,87.49
2023-05-12T20:45:26.821Z,87.41
2023-05-12T20:47:56.114Z,87.08
2023-05-12T20:50:24.368Z,87.83
2023-05-12T20:52:52.227Z,87.73
2023-05-12T20:55:20.234Z,87.56
2023-05-12T20:57:48.254Z,86.60
2023-05-12T21:00:17.200Z,88.36
2023-05-12T21:02:45.449Z,87.29
2023-05-12T21:05:15.067Z,87.63
2023-05-12T21:07:42.929Z,87.97
2023-05-12T21:10:11.517Z,87.32
2023-05-12T21:12:39.506Z,86.90
2023-05-12T21:15:11.378Z,87.22
2023-05-12T21:17:40.067Z,86.20
2023-05-12T21:20:10.342Z,86.48
2023-05-12T21:22:41.428Z,86.27
2023-05-12T21:25:10.012Z,86.82
2023-05-12T21:27:40.284Z,87.69
2023-05-12T21:30:09.802Z,87.31
2023-05-12T21:32:37.904Z,87.22
2023-05-12T21:35:06.779Z,87.23
2023-05-12T21:37:34.887Z,86.77
2023-05-12T21:40:05.019Z,86.79
2023-05-12T21:42:32.891Z,86.87
2023-05-12T21:45:00.725Z,86.85
